sensor_id;sensor_type;location;lat;lon;timestamp;temperature;humidity
26479;DHT22;14163;-26.142;27.992;2023-01-04T00:01:56;25.30;99.90
26479;DHT22;14163;-26.142;27.992;2023-01-04T00:04:24;25.20;99.90
26479;DHT22;14163;-26.142;27.992;2023-01-04T00:06:52;25.20;99.90
26479;DHT22;14163;-26.142;27.992;2023-01-04T00:09:21;25.20;99.90
26479;DHT22;14163;-26.142;27.992;2023-01-04T00:11:50;25.10;99.90
26479;DHT22;14163;-26.142;27.992;2023-01-04T00:14:18;25.20;99.90
26479;DHT22;14163;-26.142;27.992;2023-01-04T00:16:48;25.20;99.90
26479;DHT22;14163;-26.142;27.992;2023-01-04T00:19:16;25.20;99.90
26479;DHT22;14163;-26.142;27.992;2023-01-04T00:21:45;25.20;99.90
26479;DHT22;14163;-26.142;27.992;2023-01-04T00:24:13;25.20;99.90
26479;DHT22;14163;-26.142;27.992;2023-01-04T00:26:42;25.20;99.90
26479;DHT22;14163;-26.142;27.992;2023-01-04T00:29:11;25.10;99.90
26479;DHT22;14163;-26.142;27.992;2023-01-04T00:31:39;25.10;99.90
26479;DHT22;14163;-26.142;27.992;2023-01-04T00:34:12;25.10;99.90
26479;DHT22;14163;-26.142;27.992;2023-01-04T00:36:40;25.10;99.90
26479;DHT22;14163;-26.142;27.992;2023-01-04T00:39:09;25.10;99.90
26479;DHT22;14163;-26.142;27.992;2023-01-04T00:41:40;25.10;99.90
26479;DHT22;14163;-26.142;27.992;2023-01-04T00:44:09;25.10;99.90
26479;DHT22;14163;-26.142;27.992;2023-01-04T00:46:38;25.00;99.90
26479;DHT22;14163;-26.142;27.992;2023-01-04T00:49:06;25.10;99.90
26479;DHT22;14163;-26.142;27.992;2023-01-04T00:51:37;25.10;99.90
26479;DHT22;14163;-26.142;27.992;2023-01-04T00:54:06;25.10;99.90
26479;DHT22;14163;-26.142;27.992;2023-01-04T00:56:35;25.10;99.90
26479;DHT22;14163;-26.142;27.992;2023-01-04T00:59:03;25.10;99.90
26479;DHT22;14163;-26.142;27.992;2023-01-04T01:01:32;25.10;99.90
26479;DHT22;14163;-26.142;27.992;2023-01-04T01:04:01;25.00;99.90
26479;DHT22;14163;-26.142;27.992;2023-01-04T01:06:31;25.00;99.90
26479;DHT22;14163;-26.142;27.992;2023-01-04T01:09:01;25.10;99.90
26479;DHT22;14163;-26.142;27.992;2023-01-04T01:11:29;25.10;99.90
26479;DHT22;14163;-26.142;27.992;2023-01-04T01:13:58;25.10;99.90
26479;DHT22;14163;-26.142;27.992;2023-01-04T01:16:26;25.00;99.90
26479;DHT22;14163;-26.142;27.992;2023-01-04T01:18:55;25.00;99.90
26479;DHT22;14163;-26.142;27.992;2023-01-04T01:21:23;24.80;99.90
26479;DHT22;14163;-26.142;27.992;2023-01-04T01:23:52;24.80;99.90
26479;DHT22;14163;-26.142;27.992;2023-01-04T01:26:23;24.90;99.90
26479;DHT22;14163;-26.142;27.992;2023-01-04T01:28:51;25.00;99.90
26479;DHT22;14163;-26.142;27.992;2023-01-04T01:31:21;25.00;99.90
26479;DHT22;14163;-26.142;27.992;2023-01-04T01:33:50;24.80;99.90
26479;DHT22;14163;-26.142;27.992;2023-01-04T01:36:19;24.80;99.90
26479;DHT22;14163;-26.142;27.992;2023-01-04T01:38:47;24.70;99.90
26479;DHT22;14163;-26.142;27.992;2023-01-04T01:41:17;24.70;99.90
26479;DHT22;14163;-26.142;27.992;2023-01-04T01:43:48;24.80;99.90
26479;DHT22;14163;-26.142;27.992;2023-01-04T01:46:18;24.70;99.90
26479;DHT22;14163;-26.142;27.992;2023-01-04T01:48:47;24.70;99.90
26479;DHT22;14163;-26.142;27.992;2023-01-04T01:51:15;24.60;99.90
26479;DHT22;14163;-26.142;27.992;2023-01-04T01:53:45;24.50;99.90
26479;DHT22;14163;-26.142;27.992;2023-01-04T01:56:14;24.40;99.90
26479;DHT22;14163;-26.142;27.992;2023-01-04T01:58:46;24.40;99.90
26479;DHT22;14163;-26.142;27.992;2023-01-04T02:01:19;24.40;99.90
26479;DHT22;14163;-26.142;27.992;2023-01-04T02:03:47;24.30;99.90
26479;DHT22;14163;-26.142;27.992;2023-01-04T02:06:17;24.30;99.90
26479;DHT22;14163;-26.142;27.992;2023-01-04T02:08:46;24.30;99.90
26479;DHT22;14163;-26.142;27.992;2023-01-04T02:11:15;24.20;99.90
26479;DHT22;14163;-26.142;27.992;2023-01-04T02:13:44;24.10;99.90
26479;DHT22;14163;-26.142;27.992;2023-01-04T02:16:36;24.10;99.90
26479;DHT22;14163;-26.142;27.992;2023-01-04T02:19:13;24.10;99.90
26479;DHT22;14163;-26.142;27.992;2023-01-04T02:21:49;24.10;99.90
26479;DHT22;14163;-26.142;27.992;2023-01-04T02:24:25;24.10;99.90
26479;DHT22;14163;-26.142;27.992;2023-01-04T02:32:37;23.90;99.90
26479;DHT22;14163;-26.142;27.992;2023-01-04T02:35:11;24.00;99.90
26479;DHT22;14163;-26.142;27.992;2023-01-04T02:37:45;24.00;99.90
26479;DHT22;14163;-26.142;27.992;2023-01-04T02:40:18;23.90;99.90
26479;DHT22;14163;-26.142;27.992;2023-01-04T02:42:49;23.80;99.90
26479;DHT22;14163;-26.142;27.992;2023-01-04T02:45:38;23.80;99.90
26479;DHT22;14163;-26.142;27.992;2023-01-04T02:48:10;23.80;99.90
26479;DHT22;14163;-26.142;27.992;2023-01-04T02:50:55;23.80;99.90
26479;DHT22;14163;-26.142;27.992;2023-01-04T02:53:24;23.80;99.90
26479;DHT22;14163;-26.142;27.992;2023-01-04T02:55:56;23.80;99.90
26479;DHT22;14163;-26.142;27.992;2023-01-04T02:58:31;23.70;99.90
26479;DHT22;14163;-26.142;27.992;2023-01-04T03:01:05;23.70;99.90
26479;DHT22;14163;-26.142;27.992;2023-01-04T03:03:57;23.70;99.90
26479;DHT22;14163;-26.142;27.992;2023-01-04T03:06:46;23.60;99.90
26479;DHT22;14163;-26.142;27.992;2023-01-04T03:09:18;23.50;99.90
26479;DHT22;14163;-26.142;27.992;2023-01-04T03:11:49;23.50;99.90
26479;DHT22;14163;-26.142;27.992;2023-01-04T03:14:36;23.50;99.90
26479;DHT22;14163;-26.142;27.992;2023-01-04T03:17:07;23.50;99.90
26479;DHT22;14163;-26.142;27.992;2023-01-04T03:19:39;23.50;99.90
26479;DHT22;14163;-26.142;27.992;2023-01-04T03:22:20;23.60;99.90
26479;DHT22;14163;-26.142;27.992;2023-01-04T03:25:06;23.60;99.90
26479;DHT22;14163;-26.142;27.992;2023-01-04T03:27:52;23.60;99.90
26479;DHT22;14163;-26.142;27.992;2023-01-04T03:30:38;23.50;99.90
26479;DHT22;14163;-26.142;27.992;2023-01-04T03:33:26;23.40;99.90
26479;DHT22;14163;-26.142;27.992;2023-01-04T03:36:16;23.30;99.90
26479;DHT22;14163;-26.142;27.992;2023-01-04T03:38:47;23.40;99.90
26479;DHT22;14163;-26.142;27.992;2023-01-04T03:41:36;23.40;99.90
26479;DHT22;14163;-26.142;27.992;2023-01-04T03:44:28;23.40;99.90
26479;DHT22;14163;-26.142;27.992;2023-01-04T03:47:16;23.40;99.90
26479;DHT22;14163;-26.142;27.992;2023-01-04T03:50:02;23.30;99.90
26479;DHT22;14163;-26.142;27.992;2023-01-04T03:52:34;23.30;99.90
26479;DHT22;14163;-26.142;27.992;2023-01-04T03:55:03;23.30;99.90
26479;DHT22;14163;-26.142;27.992;2023-01-04T03:57:33;23.40;99.90
26479;DHT22;14163;-26.142;27.992;2023-01-04T04:00:04;23.40;99.90
26479;DHT22;14163;-26.142;27.992;2023-01-04T04:02:34;23.40;99.90
26479;DHT22;14163;-26.142;27.992;2023-01-04T04:05:03;23.40;99.90
26479;DHT22;14163;-26.142;27.992;2023-01-04T04:07:50;23.50;99.90
26479;DHT22;14163;-26.142;27.992;2023-01-04T04:10:35;23.50;99.90
26479;DHT22;14163;-26.142;27.992;2023-01-04T04:13:03;23.50;99.90
26479;DHT22;14163;-26.142;27.992;2023-01-04T04:15:32;23.60;99.90
26479;DHT22;14163;-26.142;27.992;2023-01-04T04:18:01;23.60;99.90
26479;DHT22;14163;-26.142;27.992;2023-01-04T04:20:30;23.60;99.90
26479;DHT22;14163;-26.142;27.992;2023-01-04T04:23:00;23.70;99.90
26479;DHT22;14163;-26.142;27.992;2023-01-04T04:25:28;23.60;99.90
26479;DHT22;14163;-26.142;27.992;2023-01-04T04:27:56;23.70;99.90
26479;DHT22;14163;-26.142;27.992;2023-01-04T04:30:25;23.80;99.90
26479;DHT22;14163;-26.142;27.992;2023-01-04T04:32:54;23.70;99.90
26479;DHT22;14163;-26.142;27.992;2023-01-04T04:35:23;23.70;99.90
26479;DHT22;14163;-26.142;27.992;2023-01-04T04:37:51;23.70;99.90
26479;DHT22;14163;-26.142;27.992;2023-01-04T04:40:21;23.70;99.90
26479;DHT22;14163;-26.142;27.992;2023-01-04T04:43:09;23.60;99.90
26479;DHT22;14163;-26.142;27.992;2023-01-04T04:45:38;23.60;99.90
26479;DHT22;14163;-26.142;27.992;2023-01-04T04:48:06;23.80;99.90
26479;DHT22;14163;-26.142;27.992;2023-01-04T04:50:34;23.80;99.90
26479;DHT22;14163;-26.142;27.992;2023-01-04T04:53:03;23.80;99.90
26479;DHT22;14163;-26.142;27.992;2023-01-04T04:55:33;23.80;99.90
26479;DHT22;14163;-26.142;27.992;2023-01-04T04:58:01;23.70;99.90
26479;DHT22;14163;-26.142;27.992;2023-01-04T05:00:30;23.90;99.90
26479;DHT22;14163;-26.142;27.992;2023-01-04T05:02:58;23.90;99.90
26479;DHT22;14163;-26.142;27.992;2023-01-04T05:05:26;24.00;99.90
26479;DHT22;14163;-26.142;27.992;2023-01-04T05:07:55;24.20;99.90
26479;DHT22;14163;-26.142;27.992;2023-01-04T05:10:23;24.30;99.90
26479;DHT22;14163;-26.142;27.992;2023-01-04T05:12:53;24.20;99.90
26479;DHT22;14163;-26.142;27.992;2023-01-04T05:15:27;24.30;99.90
26479;DHT22;14163;-26.142;27.992;2023-01-04T05:17:56;24.00;99.90
26479;DHT22;14163;-26.142;27.992;2023-01-04T05:20:24;23.70;99.90
26479;DHT22;14163;-26.142;27.992;2023-01-04T05:22:52;23.40;99.90
26479;DHT22;14163;-26.142;27.992;2023-01-04T05:25:21;23.20;99.90
26479;DHT22;14163;-26.142;27.992;2023-01-04T05:27:49;23.10;99.90
26479;DHT22;14163;-26.142;27.992;2023-01-04T05:30:19;23.20;99.90
26479;DHT22;14163;-26.142;27.992;2023-01-04T05:33:05;23.10;99.90
26479;DHT22;14163;-26.142;27.992;2023-01-04T05:35:33;23.10;99.90
26479;DHT22;14163;-26.142;27.992;2023-01-04T05:38:02;23.10;99.90
26479;DHT22;14163;-26.142;27.992;2023-01-04T05:40:30;23.20;99.90
26479;DHT22;14163;-26.142;27.992;2023-01-04T05:42:59;23.20;99.90
26479;DHT22;14163;-26.142;27.992;2023-01-04T05:45:29;23.20;99.90
26479;DHT22;14163;-26.142;27.992;2023-01-04T05:47:57;23.30;99.90
26479;DHT22;14163;-26.142;27.992;2023-01-04T05:50:25;23.40;99.90
26479;DHT22;14163;-26.142;27.992;2023-01-04T05:52:54;23.40;99.90
26479;DHT22;14163;-26.142;27.992;2023-01-04T05:55:22;23.20;99.90
26479;DHT22;14163;-26.142;27.992;2023-01-04T05:57:50;23.00;99.90
26479;DHT22;14163;-26.142;27.992;2023-01-04T06:00:19;23.00;99.90
26479;DHT22;14163;-26.142;27.992;2023-01-04T06:02:49;23.00;99.90
26479;DHT22;14163;-26.142;27.992;2023-01-04T06:05:20;23.10;99.90
26479;DHT22;14163;-26.142;27.992;2023-01-04T06:07:49;22.80;99.90
26479;DHT22;14163;-26.142;27.992;2023-01-04T06:10:17;22.80;99.90
26479;DHT22;14163;-26.142;27.992;2023-01-04T06:12:46;22.80;99.90
26479;DHT22;14163;-26.142;27.992;2023-01-04T06:15:14;22.80;99.90
26479;DHT22;14163;-26.142;27.992;2023-01-04T06:17:44;22.80;99.90
26479;DHT22;14163;-26.142;27.992;2023-01-04T06:20:14;23.00;99.90
26479;DHT22;14163;-26.142;27.992;2023-01-04T06:22:42;22.90;99.90
26479;DHT22;14163;-26.142;27.992;2023-01-04T06:25:11;23.00;99.90
26479;DHT22;14163;-26.142;27.992;2023-01-04T06:27:39;23.00;99.90
26479;DHT22;14163;-26.142;27.992;2023-01-04T06:30:08;23.20;99.90
26479;DHT22;14163;-26.142;27.992;2023-01-04T06:32:36;23.30;99.90
26479;DHT22;14163;-26.142;27.992;2023-01-04T06:35:05;23.40;99.90
26479;DHT22;14163;-26.142;27.992;2023-01-04T06:37:35;23.50;99.90
26479;DHT22;14163;-26.142;27.992;2023-01-04T06:40:04;23.60;99.90
26479;DHT22;14163;-26.142;27.992;2023-01-04T06:42:32;23.80;99.90
26479;DHT22;14163;-26.142;27.992;2023-01-04T06:45:13;23.80;99.90
26479;DHT22;14163;-26.142;27.992;2023-01-04T06:47:42;23.90;99.90
26479;DHT22;14163;-26.142;27.992;2023-01-04T06:50:12;23.90;99.90
26479;DHT22;14163;-26.142;27.992;2023-01-04T06:52:42;23.70;99.90
26479;DHT22;14163;-26.142;27.992;2023-01-04T06:55:11;23.50;99.90
26479;DHT22;14163;-26.142;27.992;2023-01-04T06:57:39;23.40;99.90
26479;DHT22;14163;-26.142;27.992;2023-01-04T07:00:08;23.40;99.90
26479;DHT22;14163;-26.142;27.992;2023-01-04T07:02:36;23.50;99.90
26479;DHT22;14163;-26.142;27.992;2023-01-04T07:05:05;23.70;99.90
26479;DHT22;14163;-26.142;27.992;2023-01-04T07:07:33;24.00;99.90
26479;DHT22;14163;-26.142;27.992;2023-01-04T07:10:04;24.10;99.90
26479;DHT22;14163;-26.142;27.992;2023-01-04T07:12:32;24.10;99.90
26479;DHT22;14163;-26.142;27.992;2023-01-04T07:15:01;24.00;99.90
26479;DHT22;14163;-26.142;27.992;2023-01-04T07:17:29;23.90;99.90
26479;DHT22;14163;-26.142;27.992;2023-01-04T07:19:57;24.00;99.90
26479;DHT22;14163;-26.142;27.992;2023-01-04T07:22:26;24.20;99.90
26479;DHT22;14163;-26.142;27.992;2023-01-04T07:24:54;24.40;99.90
26479;DHT22;14163;-26.142;27.992;2023-01-04T07:27:24;24.40;99.90
26479;DHT22;14163;-26.142;27.992;2023-01-04T07:29:52;24.20;99.90
26479;DHT22;14163;-26.142;27.992;2023-01-04T07:32:21;24.10;99.90
26479;DHT22;14163;-26.142;27.992;2023-01-04T07:34:49;24.30;99.90
26479;DHT22;14163;-26.142;27.992;2023-01-04T07:37:17;24.40;99.90
26479;DHT22;14163;-26.142;27.992;2023-01-04T07:39:46;24.50;99.90
26479;DHT22;14163;-26.142;27.992;2023-01-04T07:42:14;24.50;99.90
26479;DHT22;14163;-26.142;27.992;2023-01-04T07:44:45;24.50;99.90
26479;DHT22;14163;-26.142;27.992;2023-01-04T07:47:14;24.80;99.90
26479;DHT22;14163;-26.142;27.992;2023-01-04T07:49:42;24.80;99.90
26479;DHT22;14163;-26.142;27.992;2023-01-04T07:52:13;24.80;99.90
26479;DHT22;14163;-26.142;27.992;2023-01-04T07:54:42;24.90;99.90
26479;DHT22;14163;-26.142;27.992;2023-01-04T07:57:10;24.50;99.90
26479;DHT22;14163;-26.142;27.992;2023-01-04T07:59:38;24.40;99.90
26479;DHT22;14163;-26.142;27.992;2023-01-04T08:02:10;24.20;99.90
26479;DHT22;14163;-26.142;27.992;2023-01-04T08:04:38;24.40;99.90
26479;DHT22;14163;-26.142;27.992;2023-01-04T08:07:07;24.40;99.90
26479;DHT22;14163;-26.142;27.992;2023-01-04T08:09:35;24.60;99.90
26479;DHT22;14163;-26.142;27.992;2023-01-04T08:12:04;24.70;99.90
26479;DHT22;14163;-26.142;27.992;2023-01-04T08:14:32;24.60;99.90
26479;DHT22;14163;-26.142;27.992;2023-01-04T08:17:00;24.70;99.90
26479;DHT22;14163;-26.142;27.992;2023-01-04T08:19:30;24.90;99.90
26479;DHT22;14163;-26.142;27.992;2023-01-04T08:21:59;25.10;99.90
26479;DHT22;14163;-26.142;27.992;2023-01-04T08:24:27;25.10;99.90
26479;DHT22;14163;-26.142;27.992;2023-01-04T08:26:55;25.20;99.90
26479;DHT22;14163;-26.142;27.992;2023-01-04T08:29:24;25.50;99.90
26479;DHT22;14163;-26.142;27.992;2023-01-04T08:31:52;25.40;99.90
26479;DHT22;14163;-26.142;27.992;2023-01-04T08:34:21;25.60;99.90
26479;DHT22;14163;-26.142;27.992;2023-01-04T08:36:50;25.40;99.90
26479;DHT22;14163;-26.142;27.992;2023-01-04T08:39:19;25.70;99.90
26479;DHT22;14163;-26.142;27.992;2023-01-04T08:41:48;25.80;99.90
26479;DHT22;14163;-26.142;27.992;2023-01-04T08:44:19;25.80;99.90
26479;DHT22;14163;-26.142;27.992;2023-01-04T08:46:48;25.60;99.90
26479;DHT22;14163;-26.142;27.992;2023-01-04T08:49:17;25.50;99.90
26479;DHT22;14163;-26.142;27.992;2023-01-04T08:51:45;25.60;99.90
26479;DHT22;14163;-26.142;27.992;2023-01-04T08:54:15;25.80;99.90
26479;DHT22;14163;-26.142;27.992;2023-01-04T08:56:44;25.70;99.90
26479;DHT22;14163;-26.142;27.992;2023-01-04T08:59:12;25.80;99.90
26479;DHT22;14163;-26.142;27.992;2023-01-04T09:01:41;25.90;99.90
26479;DHT22;14163;-26.142;27.992;2023-01-04T09:04:09;26.10;99.90
26479;DHT22;14163;-26.142;27.992;2023-01-04T09:06:37;26.30;99.90
26479;DHT22;14163;-26.142;27.992;2023-01-04T09:09:06;26.30;99.90
26479;DHT22;14163;-26.142;27.992;2023-01-04T09:11:36;26.20;99.90
26479;DHT22;14163;-26.142;27.992;2023-01-04T09:14:04;26.20;99.90
26479;DHT22;14163;-26.142;27.992;2023-01-04T09:16:35;26.30;99.90
26479;DHT22;14163;-26.142;27.992;2023-01-04T09:19:04;26.30;99.90
26479;DHT22;14163;-26.142;27.992;2023-01-04T09:21:32;26.00;99.90
26479;DHT22;14163;-26.142;27.992;2023-01-04T09:24:01;26.10;99.90
26479;DHT22;14163;-26.142;27.992;2023-01-04T09:26:29;26.00;99.90
26479;DHT22;14163;-26.142;27.992;2023-01-04T09:28:59;26.20;99.90
26479;DHT22;14163;-26.142;27.992;2023-01-04T09:31:28;26.30;99.90
26479;DHT22;14163;-26.142;27.992;2023-01-04T09:33:57;26.00;99.90
26479;DHT22;14163;-26.142;27.992;2023-01-04T09:36:25;26.00;99.90
26479;DHT22;14163;-26.142;27.992;2023-01-04T09:38:54;26.10;99.90
26479;DHT22;14163;-26.142;27.992;2023-01-04T09:41:24;26.10;99.90
26479;DHT22;14163;-26.142;27.992;2023-01-04T09:43:54;26.20;99.90
26479;DHT22;14163;-26.142;27.992;2023-01-04T09:46:27;26.50;99.90
26479;DHT22;14163;-26.142;27.992;2023-01-04T09:48:58;26.60;99.90
26479;DHT22;14163;-26.142;27.992;2023-01-04T09:51:29;26.50;99.90
26479;DHT22;14163;-26.142;27.992;2023-01-04T09:54:00;26.40;99.90
26479;DHT22;14163;-26.142;27.992;2023-01-04T09:56:30;26.50;99.90
26479;DHT22;14163;-26.142;27.992;2023-01-04T09:58:59;26.60;99.90
26479;DHT22;14163;-26.142;27.992;2023-01-04T10:01:32;26.80;99.90
26479;DHT22;14163;-26.142;27.992;2023-01-04T10:04:04;26.60;99.90
26479;DHT22;14163;-26.142;27.992;2023-01-04T10:06:34;26.50;99.90
26479;DHT22;14163;-26.142;27.992;2023-01-04T10:09:05;26.60;99.90
26479;DHT22;14163;-26.142;27.992;2023-01-04T10:11:40;26.70;99.90
26479;DHT22;14163;-26.142;27.992;2023-01-04T10:14:23;26.60;99.90
26479;DHT22;14163;-26.142;27.992;2023-01-04T10:17:03;26.50;99.90
26479;DHT22;14163;-26.142;27.992;2023-01-04T10:19:37;26.70;99.90
26479;DHT22;14163;-26.142;27.992;2023-01-04T10:22:09;27.00;99.90
26479;DHT22;14163;-26.142;27.992;2023-01-04T10:24:41;27.00;99.90
26479;DHT22;14163;-26.142;27.992;2023-01-04T10:27:12;27.00;99.90
26479;DHT22;14163;-26.142;27.992;2023-01-04T10:29:48;26.90;99.90
26479;DHT22;14163;-26.142;27.992;2023-01-04T10:32:24;27.10;99.90
26479;DHT22;14163;-26.142;27.992;2023-01-04T10:34:54;27.10;99.90
26479;DHT22;14163;-26.142;27.992;2023-01-04T10:37:23;27.10;99.90
26479;DHT22;14163;-26.142;27.992;2023-01-04T10:39:53;27.10;99.90
26479;DHT22;14163;-26.142;27.992;2023-01-04T10:42:24;27.20;99.90
26479;DHT22;14163;-26.142;27.992;2023-01-04T10:45:04;27.40;99.90
26479;DHT22;14163;-26.142;27.992;2023-01-04T10:47:36;27.50;99.90
26479;DHT22;14163;-26.142;27.992;2023-01-04T10:50:11;27.40;99.90
26479;DHT22;14163;-26.142;27.992;2023-01-04T10:52:42;27.40;99.90
26479;DHT22;14163;-26.142;27.992;2023-01-04T10:55:12;27.40;99.90
26479;DHT22;14163;-26.142;27.992;2023-01-04T10:57:44;27.20;99.90
26479;DHT22;14163;-26.142;27.992;2023-01-04T11:00:16;27.30;99.90
26479;DHT22;14163;-26.142;27.992;2023-01-04T11:02:47;27.30;99.90
26479;DHT22;14163;-26.142;27.992;2023-01-04T11:05:18;27.30;99.90
26479;DHT22;14163;-26.142;27.992;2023-01-04T11:07:50;27.40;99.90
26479;DHT22;14163;-26.142;27.992;2023-01-04T11:10:21;27.50;99.90
26479;DHT22;14163;-26.142;27.992;2023-01-04T11:12:51;27.50;99.90
26479;DHT22;14163;-26.142;27.992;2023-01-04T11:15:20;27.60;99.90
26479;DHT22;14163;-26.142;27.992;2023-01-04T11:17:51;27.70;99.90
26479;DHT22;14163;-26.142;27.992;2023-01-04T11:20:19;27.60;99.90
26479;DHT22;14163;-26.142;27.992;2023-01-04T11:22:49;27.70;99.90
26479;DHT22;14163;-26.142;27.992;2023-01-04T11:25:20;27.70;99.90
26479;DHT22;14163;-26.142;27.992;2023-01-04T11:27:51;27.50;99.90
26479;DHT22;14163;-26.142;27.992;2023-01-04T11:30:22;27.60;99.90
26479;DHT22;14163;-26.142;27.992;2023-01-04T11:32:54;27.70;99.90
26479;DHT22;14163;-26.142;27.992;2023-01-04T11:35:38;27.90;99.90
26479;DHT22;14163;-26.142;27.992;2023-01-04T11:38:11;27.80;99.90
26479;DHT22;14163;-26.142;27.992;2023-01-04T11:40:40;27.70;99.90
26479;DHT22;14163;-26.142;27.992;2023-01-04T11:43:15;27.80;99.90
26479;DHT22;14163;-26.142;27.992;2023-01-04T11:45:54;27.70;99.90
26479;DHT22;14163;-26.142;27.992;2023-01-04T11:48:37;27.90;99.90
26479;DHT22;14163;-26.142;27.992;2023-01-04T11:51:14;27.90;99.90
26479;DHT22;14163;-26.142;27.992;2023-01-04T11:53:42;28.10;99.90
26479;DHT22;14163;-26.142;27.992;2023-01-04T11:56:15;28.30;99.90
26479;DHT22;14163;-26.142;27.992;2023-01-04T11:58:44;28.30;99.90
26479;DHT22;14163;-26.142;27.992;2023-01-04T12:01:25;28.30;99.90
26479;DHT22;14163;-26.142;27.992;2023-01-04T12:03:55;28.40;99.90
26479;DHT22;14163;-26.142;27.992;2023-01-04T12:06:31;28.40;99.90
26479;DHT22;14163;-26.142;27.992;2023-01-04T12:08:59;28.40;99.90
26479;DHT22;14163;-26.142;27.992;2023-01-04T12:11:28;28.40;99.90
26479;DHT22;14163;-26.142;27.992;2023-01-04T12:13:57;28.50;99.90
26479;DHT22;14163;-26.142;27.992;2023-01-04T12:16:28;28.30;99.90
26479;DHT22;14163;-26.142;27.992;2023-01-04T12:19:02;28.50;99.90
26479;DHT22;14163;-26.142;27.992;2023-01-04T12:21:31;28.90;99.90
26479;DHT22;14163;-26.142;27.992;2023-01-04T12:24:00;28.90;99.90
26479;DHT22;14163;-26.142;27.992;2023-01-04T12:26:32;28.90;99.90
26479;DHT22;14163;-26.142;27.992;2023-01-04T12:32:04;28.70;99.90
26479;DHT22;14163;-26.142;27.992;2023-01-04T12:34:44;28.70;99.90
26479;DHT22;14163;-26.142;27.992;2023-01-04T12:37:42;28.90;99.90
26479;DHT22;14163;-26.142;27.992;2023-01-04T12:43:16;28.70;99.90
26479;DHT22;14163;-26.142;27.992;2023-01-04T12:45:44;29.00;99.90
26479;DHT22;14163;-26.142;27.992;2023-01-04T12:48:33;29.20;99.90
26479;DHT22;14163;-26.142;27.992;2023-01-04T12:51:20;28.80;99.90
26479;DHT22;14163;-26.142;27.992;2023-01-04T12:53:50;28.90;99.90
26479;DHT22;14163;-26.142;27.992;2023-01-04T12:56:18;29.10;99.90
26479;DHT22;14163;-26.142;27.992;2023-01-04T13:01:32;29.10;99.90
26479;DHT22;14163;-26.142;27.992;2023-01-04T13:04:02;29.10;99.90
26479;DHT22;14163;-26.142;27.992;2023-01-04T13:06:34;29.00;99.90
26479;DHT22;14163;-26.142;27.992;2023-01-04T13:09:08;28.90;99.90
26479;DHT22;14163;-26.142;27.992;2023-01-04T13:11:59;28.90;99.90
26479;DHT22;14163;-26.142;27.992;2023-01-04T13:14:32;29.00;99.90
26479;DHT22;14163;-26.142;27.992;2023-01-04T13:17:07;29.00;99.90
26479;DHT22;14163;-26.142;27.992;2023-01-04T13:19:38;28.90;99.90
26479;DHT22;14163;-26.142;27.992;2023-01-04T13:22:14;28.80;99.90
26479;DHT22;14163;-26.142;27.992;2023-01-04T13:24:44;28.50;99.90
26479;DHT22;14163;-26.142;27.992;2023-01-04T13:27:14;28.50;99.90
26479;DHT22;14163;-26.142;27.992;2023-01-04T13:29:42;28.70;99.90
26479;DHT22;14163;-26.142;27.992;2023-01-04T13:32:11;29.00;99.90
26479;DHT22;14163;-26.142;27.992;2023-01-04T13:34:42;29.20;99.90
26479;DHT22;14163;-26.142;27.992;2023-01-04T13:37:18;29.30;99.90
26479;DHT22;14163;-26.142;27.992;2023-01-04T13:39:50;29.40;99.90
26479;DHT22;14163;-26.142;27.992;2023-01-04T13:42:22;29.40;99.90
26479;DHT22;14163;-26.142;27.992;2023-01-04T13:44:57;29.30;99.90
26479;DHT22;14163;-26.142;27.992;2023-01-04T13:47:27;29.30;99.90
26479;DHT22;14163;-26.142;27.992;2023-01-04T13:49:56;29.40;99.90
26479;DHT22;14163;-26.142;27.992;2023-01-04T13:52:27;29.30;99.90
26479;DHT22;14163;-26.142;27.992;2023-01-04T13:55:08;29.10;99.90
26479;DHT22;14163;-26.142;27.992;2023-01-04T13:57:37;29.20;99.90
26479;DHT22;14163;-26.142;27.992;2023-01-04T14:00:06;29.40;99.90
26479;DHT22;14163;-26.142;27.992;2023-01-04T14:02:34;29.50;99.90
26479;DHT22;14163;-26.142;27.992;2023-01-04T14:05:03;29.50;99.90
26479;DHT22;14163;-26.142;27.992;2023-01-04T14:07:33;29.40;99.90
26479;DHT22;14163;-26.142;27.992;2023-01-04T14:10:02;29.40;99.90
26479;DHT22;14163;-26.142;27.992;2023-01-04T14:12:30;29.40;99.90
26479;DHT22;14163;-26.142;27.992;2023-01-04T14:14:59;29.40;99.90
26479;DHT22;14163;-26.142;27.992;2023-01-04T14:17:34;29.50;99.90
26479;DHT22;14163;-26.142;27.992;2023-01-04T14:20:04;29.40;99.90
26479;DHT22;14163;-26.142;27.992;2023-01-04T14:22:41;29.30;99.90
26479;DHT22;14163;-26.142;27.992;2023-01-04T14:28:36;29.30;99.90
26479;DHT22;14163;-26.142;27.992;2023-01-04T14:31:12;29.30;99.90
26479;DHT22;14163;-26.142;27.992;2023-01-04T14:33:42;29.30;99.90
26479;DHT22;14163;-26.142;27.992;2023-01-04T14:36:12;29.30;99.90
26479;DHT22;14163;-26.142;27.992;2023-01-04T14:38:44;29.30;99.90
26479;DHT22;14163;-26.142;27.992;2023-01-04T14:41:17;29.20;99.90
26479;DHT22;14163;-26.142;27.992;2023-01-04T14:43:47;29.10;99.90
26479;DHT22;14163;-26.142;27.992;2023-01-04T14:46:18;28.90;99.90
26479;DHT22;14163;-26.142;27.992;2023-01-04T14:48:46;28.90;99.90
26479;DHT22;14163;-26.142;27.992;2023-01-04T14:51:15;28.80;99.90
26479;DHT22;14163;-26.142;27.992;2023-01-04T14:53:47;28.70;99.90
26479;DHT22;14163;-26.142;27.992;2023-01-04T14:56:16;28.50;99.90
26479;DHT22;14163;-26.142;27.992;2023-01-04T14:58:45;28.30;99.90
26479;DHT22;14163;-26.142;27.992;2023-01-04T15:01:13;28.30;99.90
26479;DHT22;14163;-26.142;27.992;2023-01-04T15:03:42;28.20;99.90
26479;DHT22;14163;-26.142;27.992;2023-01-04T15:06:10;28.10;99.90
26479;DHT22;14163;-26.142;27.992;2023-01-04T15:08:39;28.00;99.90
26479;DHT22;14163;-26.142;27.992;2023-01-04T15:11:10;27.80;99.90
26479;DHT22;14163;-26.142;27.992;2023-01-04T15:13:38;27.70;99.90
26479;DHT22;14163;-26.142;27.992;2023-01-04T15:16:08;27.70;99.90
26479;DHT22;14163;-26.142;27.992;2023-01-04T15:18:37;27.70;99.90
26479;DHT22;14163;-26.142;27.992;2023-01-04T15:21:05;27.90;99.90
26479;DHT22;14163;-26.142;27.992;2023-01-04T15:23:34;27.80;99.90
26479;DHT22;14163;-26.142;27.992;2023-01-04T15:26:03;27.80;99.90
26479;DHT22;14163;-26.142;27.992;2023-01-04T15:28:34;27.80;99.90
26479;DHT22;14163;-26.142;27.992;2023-01-04T15:31:05;27.80;99.90
26479;DHT22;14163;-26.142;27.992;2023-01-04T15:33:34;28.00;99.90
26479;DHT22;14163;-26.142;27.992;2023-01-04T15:36:03;28.20;99.90
26479;DHT22;14163;-26.142;27.992;2023-01-04T15:38:32;28.40;99.90
26479;DHT22;14163;-26.142;27.992;2023-01-04T15:41:04;28.60;99.90
26479;DHT22;14163;-26.142;27.992;2023-01-04T15:43:34;28.80;99.90
26479;DHT22;14163;-26.142;27.992;2023-01-04T15:46:02;28.90;99.90